< Typhoon 195721 1957 Season Typhoon 195801 >
Typhoon 195722 (MAMIE)
General InformationTrack Information on Google Maps || Disaster Info.ResourceGoogle EarthGE AnimationAtom FeedGeoJSON
Detalied Best Track (Time Zone = UTC)
Year Month Day Hour Lat. Long. Pressure (hPa) Wind (kt) Class Image Chart
1957 11 17 18 7.1 169.0 995 0 9 -- Chart
1957 11 18 00 7.2 168.0 990 0 9 -- Chart
1957 11 18 06 8.7 165.8 990 0 9 -- Chart
1957 11 18 12 10.3 163.3 990 0 9 -- Chart
1957 11 18 18 11.1 161.8 990 0 9 -- Chart
1957 11 19 00 12.1 159.7 990 0 9 -- Chart
1957 11 19 06 13.1 158.1 985 0 9 -- Chart
1957 11 19 12 13.6 157.2 985 0 9 -- Chart
1957 11 19 18 14.0 156.2 985 0 9 -- Chart
1957 11 20 00 14.7 155.0 985 0 9 -- Chart
1957 11 20 06 15.3 154.1 980 0 9 -- Chart
1957 11 20 12 16.4 152.3 975 0 9 -- Chart
1957 11 20 18 17.4 152.2 970 0 9 -- Chart
1957 11 21 00 18.4 151.9 970 0 9 -- Chart
1957 11 21 06 19.4 151.3 960 0 9 -- Chart
1957 11 21 12 20.6 150.7 960 0 9 -- Chart
1957 11 21 18 22.3 150.4 960 0 9 -- Chart
1957 11 22 00 23.8 150.4 960 0 9 -- Chart
1957 11 22 06 25.6 151.1 960 0 9 -- Chart
1957 11 22 12 27.2 152.7 970 0 9 -- Chart
1957 11 22 18 28.5 154.5 980 0 9 -- Chart
1957 11 23 00 29.4 156.6 985 0 9 -- Chart
1957 11 23 06 29.8 159.6 985 0 9 -- Chart
1957 11 23 12 29.9 162.5 995 0 9 -- Chart
1957 11 23 18 30.4 165.1 995 0 9 -- Chart
1957 11 24 00 31.0 167.8 1000 0 6 -- Chart
1957 11 24 06 31.6 170.9 1004 0 6 -- Chart
1957 11 24 12 32.1 173.8 1004 0 6 -- Chart
1957 11 24 18 32.9 176.2 1006 0 6 -- Chart
1957 11 25 00 33.9 179.0 1006 0 6 -- Chart
1957 11 25 06 35.8 181.0 1005 0 6 -- Chart
Japan Meteorological Agency Best Track Data | Correction Date : 1989-06-01
< Typhoon 195721 1957 Season Typhoon 195801 >

Help